Time;durP1;ratioP1;P1;durP2;ratioP2;P2;SDS_P1;SDS_P2;PMS_P1;PMS_P2;Temp;Humidity;BMP_temperature;BMP_pressure;BME280_temperature;BME280_humidity;BME280_pressure;Samples;Min_cycle;Max_cycle;Signal;HPM_P1;HPM_P2
2022/06/28 00:02:16;;;;;;;3.35;3.00;;;;;;;;;;4810586;29;20132;-81
2022/06/28 00:04:44;;;;;;;5.25;3.30;;;;;;;;;;4845818;24;20049;-78
2022/06/28 00:07:11;;;;;;;4.03;3.45;;;;;;;;;;4831899;29;20077;-78
2022/06/28 00:09:38;;;;;;;6.50;3.22;;;;;;;;;;4813935;29;20074;-78
2022/06/28 00:12:06;;;;;;;6.57;2.33;;;;;;;;;;4800803;29;20685;-78
2022/06/28 00:17:20;;;;;;;3.70;3.33;;;;;;;;;;4807064;29;20123;-78
2022/06/28 00:19:47;;;;;;;3.17;2.72;;;;;;;;;;4808131;29;20043;-78
2022/06/28 00:22:15;;;;;;;5.85;4.60;;;;;;;;;;4813603;29;20146;-77
2022/06/28 00:24:42;;;;;;;4.07;3.60;;;;;;;;;;4813012;29;21119;-77
2022/06/28 00:27:10;;;;;;;4.22;3.83;;;;;;;;;;4819345;29;20460;-78
2022/06/28 00:29:40;;;;;;;5.40;4.13;;;;;;;;;;4814875;29;20050;-77
2022/06/28 00:32:08;;;;;;;5.97;4.20;;;;;;;;;;4789293;29;20515;-78
2022/06/28 00:34:35;;;;;;;6.80;4.57;;;;;;;;;;4818143;29;20053;-78
2022/06/28 00:37:03;;;;;;;4.40;3.97;;;;;;;;;;4818148;29;20050;-77
2022/06/28 00:39:30;;;;;;;3.38;3.08;;;;;;;;;;4835235;29;20074;-78
2022/06/28 00:41:57;;;;;;;3.83;2.58;;;;;;;;;;4837072;29;20068;-78
2022/06/28 00:44:25;;;;;;;1.50;1.40;;;;;;;;;;4838937;29;20137;-78
2022/06/28 00:46:53;;;;;;;2.00;1.90;;;;;;;;;;4834529;29;20118;-78
2022/06/28 00:49:20;;;;;;;1.77;1.67;;;;;;;;;;4827161;29;20744;-78
2022/06/28 00:51:48;;;;;;;3.28;2.40;;;;;;;;;;4835313;29;20038;-78
2022/06/28 00:54:15;;;;;;;1.63;1.52;;;;;;;;;;4836470;29;20114;-78
2022/06/28 00:56:43;;;;;;;2.47;1.85;;;;;;;;;;4848683;29;20045;-78
2022/06/28 00:59:10;;;;;;;2.80;2.60;;;;;;;;;;4823326;29;20044;-78
2022/06/28 01:01:37;;;;;;;4.35;3.47;;;;;;;;;;4809820;29;20502;-78
2022/06/28 01:04:05;;;;;;;3.55;3.25;;;;;;;;;;4825594;29;20060;-78
2022/06/28 01:06:32;;;;;;;3.80;3.50;;;;;;;;;;4833214;29;20054;-78
2022/06/28 01:09:00;;;;;;;5.57;5.00;;;;;;;;;;4836682;29;20054;-78
2022/06/28 01:11:30;;;;;;;5.28;4.75;;;;;;;;;;4807490;29;20507;-78
2022/06/28 01:13:59;;;;;;;5.10;4.25;;;;;;;;;;4816137;29;20061;-78
2022/06/28 01:16:36;;;;;;;5.57;5.07;;;;;;;;;;4817900;29;20141;-78
2022/06/28 01:19:11;;;;;;;6.18;5.65;;;;;;;;;;4826197;29;20525;-78
2022/06/28 01:21:39;;;;;;;7.55;4.47;;;;;;;;;;4809166;29;20096;-78
2022/06/28 01:24:06;;;;;;;7.53;5.03;;;;;;;;;;4819052;29;20556;-78
2022/06/28 01:26:44;;;;;;;6.20;5.00;;;;;;;;;;4819796;29;20042;-78
2022/06/28 01:29:12;;;;;;;5.00;4.55;;;;;;;;;;4820964;29;20057;-78
2022/06/28 01:31:51;;;;;;;9.10;4.57;;;;;;;;;;4817709;29;20154;-78
2022/06/28 01:34:19;;;;;;;5.32;4.75;;;;;;;;;;4827240;29;20061;-78
2022/06/28 01:36:47;;;;;;;5.03;4.25;;;;;;;;;;4819689;29;20073;-78
2022/06/28 01:39:17;;;;;;;6.57;5.88;;;;;;;;;;4820668;29;20857;-78
2022/06/28 01:41:44;;;;;;;7.85;6.28;;;;;;;;;;4815945;29;20056;-78
2022/06/28 01:44:18;;;;;;;5.75;4.75;;;;;;;;;;4818969;29;20229;-78
2022/06/28 01:47:10;;;;;;;6.18;5.18;;;;;;;;;;4834893;29;20141;-78
2022/06/28 01:50:07;;;;;;;4.40;4.00;;;;;;;;;;4841127;29;20053;-78
2022/06/28 01:52:43;;;;;;;3.80;3.50;;;;;;;;;;4821173;29;20045;-78
2022/06/28 01:55:30;;;;;;;3.40;3.10;;;;;;;;;;4824441;29;20509;-78
2022/06/28 01:57:59;;;;;;;4.82;4.43;;;;;;;;;;4804961;29;20092;-78
2022/06/28 02:00:26;;;;;;;6.68;5.60;;;;;;;;;;4821053;29;20072;-78
2022/06/28 02:02:58;;;;;;;8.43;6.40;;;;;;;;;;4821008;29;20448;-78
2022/06/28 02:05:26;;;;;;;6.75;6.25;;;;;;;;;;4830047;29;20046;-77
2022/06/28 02:07:55;;;;;;;6.90;6.30;;;;;;;;;;4816471;29;20420;-77
2022/06/28 02:10:25;;;;;;;6.80;5.95;;;;;;;;;;4829838;29;20048;-77
2022/06/28 02:12:52;;;;;;;10.50;6.40;;;;;;;;;;4818347;29;20046;-77
2022/06/28 02:15:20;;;;;;;7.05;6.35;;;;;;;;;;4833867;29;20057;-77
2022/06/28 02:17:47;;;;;;;7.95;6.07;;;;;;;;;;4836695;29;20128;-77
2022/06/28 02:20:15;;;;;;;7.10;6.40;;;;;;;;;;4839342;29;20045;-77
2022/06/28 02:22:43;;;;;;;10.35;6.28;;;;;;;;;;4839249;29;20049;-77
2022/06/28 02:25:11;;;;;;;5.60;5.10;;;;;;;;;;4822688;29;20064;-77
2022/06/28 02:27:38;;;;;;;6.55;5.80;;;;;;;;;;4820118;29;20054;-77
2022/06/28 02:30:06;;;;;;;6.65;5.60;;;;;;;;;;4812914;29;20521;-77
2022/06/28 02:32:34;;;;;;;6.03;5.35;;;;;;;;;;4810811;29;20042;-77
2022/06/28 02:40:34;;;;;;;4.50;4.10;;;;;;;;;;4816337;29;20212;-76
2022/06/28 02:43:01;;;;;;;5.00;4.38;;;;;;;;;;4819079;29;20116;-77
2022/06/28 02:45:32;;;;;;;4.47;4.07;;;;;;;;;;4818074;29;20129;-76
2022/06/28 02:48:00;;;;;;;4.83;4.33;;;;;;;;;;4817392;29;20130;-77
2022/06/28 02:50:28;;;;;;;6.30;4.43;;;;;;;;;;4833542;29;20050;-77
2022/06/28 02:52:56;;;;;;;6.57;5.43;;;;;;;;;;4814256;29;20045;-77
2022/06/28 02:55:23;;;;;;;6.30;5.00;;;;;;;;;;4827156;29;20058;-77
2022/06/28 02:57:51;;;;;;;8.23;4.50;;;;;;;;;;4840607;29;20364;-77
2022/06/28 03:00:19;;;;;;;6.55;5.00;;;;;;;;;;4845835;29;20042;-77
2022/06/28 03:02:48;;;;;;;3.63;3.33;;;;;;;;;;4830511;29;20042;-77
2022/06/28 03:05:18;;;;;;;4.65;4.25;;;;;;;;;;4817679;29;20491;-77
2022/06/28 03:07:47;;;;;;;4.50;4.20;;;;;;;;;;4805279;29;20446;-77
2022/06/28 03:10:15;;;;;;;5.72;4.60;;;;;;;;;;4817045;29;20046;-77
2022/06/28 03:12:43;;;;;;;5.07;4.00;;;;;;;;;;4821975;29;20052;-77
2022/06/28 03:15:11;;;;;;;8.02;4.50;;;;;;;;;;4807740;29;20575;-77
2022/06/28 03:17:41;;;;;;;4.25;3.92;;;;;;;;;;4798211;29;20045;-77
2022/06/28 03:20:10;;;;;;;6.25;4.18;;;;;;;;;;4820118;29;20042;-77
2022/06/28 03:22:39;;;;;;;5.53;5.07;;;;;;;;;;4789792;29;20049;-77
2022/06/28 03:25:08;;;;;;;5.28;3.85;;;;;;;;;;4815769;29;20145;-77
2022/06/28 03:27:36;;;;;;;3.97;3.63;;;;;;;;;;4816414;29;20079;-77
2022/06/28 03:30:05;;;;;;;5.53;3.97;;;;;;;;;;4816169;29;20048;-77
2022/06/28 03:32:33;;;;;;;4.43;4.00;;;;;;;;;;4819732;29;20507;-77
2022/06/28 03:35:03;;;;;;;3.97;3.60;;;;;;;;;;4804298;29;20078;-76
2022/06/28 03:37:31;;;;;;;5.32;4.18;;;;;;;;;;4812103;29;20043;-76
2022/06/28 03:40:02;;;;;;;3.63;3.35;;;;;;;;;;4815670;29;20056;-76
2022/06/28 03:42:30;;;;;;;2.90;2.70;;;;;;;;;;4803166;29;20050;-77
2022/06/28 03:44:57;;;;;;;9.65;3.28;;;;;;;;;;4808470;29;20046;-77
2022/06/28 03:47:25;;;;;;;4.13;3.30;;;;;;;;;;4818411;29;20042;-77
2022/06/28 03:50:13;;;;;;;4.72;3.67;;;;;;;;;;4834244;29;20113;-76
2022/06/28 03:52:49;;;;;;;8.43;3.83;;;;;;;;;;4837454;29;20494;-76
2022/06/28 03:55:36;;;;;;;4.78;3.75;;;;;;;;;;4853990;29;20049;-76
2022/06/28 03:58:05;;;;;;;5.93;3.30;;;;;;;;;;4819381;29;20124;-76
2022/06/28 04:00:32;;;;;;;6.85;3.13;;;;;;;;;;4831847;29;20054;-77
2022/06/28 04:03:00;;;;;;;5.47;3.25;;;;;;;;;;4819587;29;20054;-76
2022/06/28 04:05:37;;;;;;;3.20;2.90;;;;;;;;;;4804407;29;20054;-76
2022/06/28 04:08:04;;;;;;;3.42;3.13;;;;;;;;;;4830953;29;20650;-78
2022/06/28 04:10:42;;;;;;;5.18;3.05;;;;;;;;;;4811961;29;20046;-77
2022/06/28 04:13:14;;;;;;;4.22;3.38;;;;;;;;;;4813402;29;20046;-77
2022/06/28 04:15:42;;;;;;;3.63;2.92;;;;;;;;;;4830677;29;20041;-77
2022/06/28 04:18:14;;;;;;;4.60;3.80;;;;;;;;;;4813479;29;20417;-77
2022/06/28 04:21:06;;;;;;;5.43;4.05;;;;;;;;;;4827702;29;20046;-77
2022/06/28 04:23:34;;;;;;;5.75;2.90;;;;;;;;;;4813745;29;20117;-77
2022/06/28 04:26:02;;;;;;;4.00;3.60;;;;;;;;;;4814162;29;20476;-77
2022/06/28 04:28:35;;;;;;;4.93;3.03;;;;;;;;;;4798222;29;20499;-77
2022/06/28 04:31:06;;;;;;;4.95;3.33;;;;;;;;;;4795335;29;20058;-77
2022/06/28 04:33:34;;;;;;;5.60;2.80;;;;;;;;;;4813542;29;20403;-77
2022/06/28 04:36:02;;;;;;;3.28;3.05;;;;;;;;;;4817206;29;20098;-77
2022/06/28 04:38:32;;;;;;;2.95;2.75;;;;;;;;;;4814313;29;20056;-77
2022/06/28 04:41:04;;;;;;;4.28;2.97;;;;;;;;;;4818871;29;20101;-77
2022/06/28 04:43:51;;;;;;;2.58;2.40;;;;;;;;;;4820255;29;20494;-77
2022/06/28 04:46:22;;;;;;;3.15;2.90;;;;;;;;;;4818794;29;20042;-77
2022/06/28 04:48:51;;;;;;;2.90;2.70;;;;;;;;;;4808560;29;20038;-77
2022/06/28 04:51:24;;;;;;;4.25;2.90;;;;;;;;;;4813186;29;20042;-77
2022/06/28 04:53:52;;;;;;;3.40;3.08;;;;;;;;;;4825061;29;20048;-77
2022/06/28 04:56:23;;;;;;;4.85;3.20;;;;;;;;;;4827322;29;20064;-77
2022/06/28 04:58:51;;;;;;;3.17;2.92;;;;;;;;;;4820746;29;20072;-77
2022/06/28 05:01:20;;;;;;;5.25;3.30;;;;;;;;;;4808251;29;20729;-77
2022/06/28 05:03:48;;;;;;;5.25;3.15;;;;;;;;;;4813142;29;20050;-77
2022/06/28 05:06:39;;;;;;;3.15;2.95;;;;;;;;;;4802326;29;20516;-77
2022/06/28 05:09:08;;;;;;;3.97;2.90;;;;;;;;;;4816876;29;20490;-77
2022/06/28 05:11:55;;;;;;;3.42;2.55;;;;;;;;;;4811003;29;20149;-77
2022/06/28 05:14:29;;;;;;;4.47;2.60;;;;;;;;;;4808546;29;20057;-77
2022/06/28 05:16:57;;;;;;;3.03;2.80;;;;;;;;;;4801294;29;20076;-76
2022/06/28 05:19:25;;;;;;;7.25;3.05;;;;;;;;;;4809087;29;20524;-77
2022/06/28 05:21:54;;;;;;;3.50;3.20;;;;;;;;;;4801864;29;20065;-76
2022/06/28 05:24:22;;;;;;;4.78;3.20;;;;;;;;;;4815089;29;20682;-75
2022/06/28 05:27:00;;;;;;;3.58;3.28;;;;;;;;;;4806253;29;20046;-77
2022/06/28 05:29:37;;;;;;;3.88;3.55;;;;;;;;;;4828535;29;20152;-77
2022/06/28 05:32:05;;;;;;;3.78;3.38;;;;;;;;;;4803227;29;20054;-77
2022/06/28 05:34:32;;;;;;;3.90;3.60;;;;;;;;;;4834926;29;20411;-76
2022/06/28 05:37:00;;;;;;;4.32;3.67;;;;;;;;;;4841839;29;20468;-76
2022/06/28 05:39:27;;;;;;;4.30;3.20;;;;;;;;;;4836680;29;20132;-76
2022/06/28 05:41:55;;;;;;;4.13;3.83;;;;;;;;;;4817476;29;20533;-77
2022/06/28 05:44:22;;;;;;;5.28;4.13;;;;;;;;;;4824044;29;20042;-77
2022/06/28 05:46:51;;;;;;;5.22;4.30;;;;;;;;;;4831403;29;20050;-76
2022/06/28 05:49:19;;;;;;;3.70;3.40;;;;;;;;;;4831159;29;20046;-77
2022/06/28 05:51:47;;;;;;;3.95;3.70;;;;;;;;;;4811849;29;20118;-76
2022/06/28 05:54:24;;;;;;;4.05;3.70;;;;;;;;;;4823621;29;20069;-78
2022/06/28 05:56:51;;;;;;;5.68;3.92;;;;;;;;;;4812940;29;20519;-76
2022/06/28 05:59:19;;;;;;;6.72;4.38;;;;;;;;;;4850289;29;20098;-76
2022/06/28 06:01:46;;;;;;;4.90;4.40;;;;;;;;;;4819177;29;20056;-76
2022/06/28 06:04:14;;;;;;;9.40;4.53;;;;;;;;;;4802385;29;20455;-77
2022/06/28 06:06:42;;;;;;;5.20;4.80;;;;;;;;;;4846499;29;20045;-76
2022/06/28 06:09:09;;;;;;;4.80;4.28;;;;;;;;;;4826242;29;20050;-76
2022/06/28 06:11:37;;;;;;;4.60;4.15;;;;;;;;;;4828223;29;20116;-76
2022/06/28 06:14:06;;;;;;;5.75;4.80;;;;;;;;;;4803882;29;20069;-77
2022/06/28 06:16:33;;;;;;;6.50;4.32;;;;;;;;;;4835830;29;20081;-77
2022/06/28 06:19:03;;;;;;;6.28;4.95;;;;;;;;;;4824496;29;20506;-78
2022/06/28 06:21:31;;;;;;;5.05;4.57;;;;;;;;;;4829932;29;20047;-76
2022/06/28 06:23:58;;;;;;;6.38;4.60;;;;;;;;;;4822413;29;20102;-78
2022/06/28 06:26:54;;;;;;;5.88;5.18;;;;;;;;;;4859186;29;20041;-75
2022/06/28 06:29:23;;;;;;;6.90;5.22;;;;;;;;;;4800613;29;20160;-76
2022/06/28 06:31:50;;;;;;;5.95;5.35;;;;;;;;;;4804643;29;20081;-75
2022/06/28 06:34:38;;;;;;;6.60;4.93;;;;;;;;;;4804426;29;20052;-77
2022/06/28 06:37:09;;;;;;;5.68;5.28;;;;;;;;;;4816921;29;20091;-77
2022/06/28 06:39:36;;;;;;;6.03;5.43;;;;;;;;;;4819865;29;20050;-77
2022/06/28 06:42:04;;;;;;;6.55;6.03;;;;;;;;;;4822225;29;20052;-76
2022/06/28 06:44:33;;;;;;;9.63;5.57;;;;;;;;;;4837530;29;21184;-77
2022/06/28 06:47:04;;;;;;;6.13;5.55;;;;;;;;;;4824678;29;20080;-77
2022/06/28 06:49:32;;;;;;;8.82;8.07;;;;;;;;;;4846221;29;20050;-77
2022/06/28 06:52:00;;;;;;;10.07;8.57;;;;;;;;;;4813679;29;20050;-77
2022/06/28 06:54:27;;;;;;;7.72;6.90;;;;;;;;;;4791201;29;20050;-75
2022/06/28 06:56:55;;;;;;;6.38;5.78;;;;;;;;;;4807026;29;20560;-77
2022/06/28 06:59:23;;;;;;;7.30;6.70;;;;;;;;;;4790769;29;20062;-77
2022/06/28 07:01:50;;;;;;;7.70;6.38;;;;;;;;;;4806812;29;20139;-75
2022/06/28 07:04:25;;;;;;;6.53;5.78;;;;;;;;;;4854215;29;20026;-75
2022/06/28 07:07:00;;;;;;;6.55;6.05;;;;;;;;;;4847326;29;20331;-78
2022/06/28 07:09:28;;;;;;;5.70;5.20;;;;;;;;;;4830752;29;20046;-77
2022/06/28 07:11:57;;;;;;;5.03;4.60;;;;;;;;;;4833583;29;20101;-75
2022/06/28 07:14:24;;;;;;;6.65;5.30;;;;;;;;;;4828461;29;20054;-76
2022/06/28 07:16:52;;;;;;;5.43;4.93;;;;;;;;;;4839779;29;20072;-77
2022/06/28 07:19:22;;;;;;;5.85;5.35;;;;;;;;;;4853467;29;20431;-78
2022/06/28 07:21:51;;;;;;;5.90;5.40;;;;;;;;;;4846189;29;20080;-75
2022/06/28 07:24:18;;;;;;;5.07;4.60;;;;;;;;;;4852650;29;20048;-76
2022/06/28 07:26:46;;;;;;;6.28;4.70;;;;;;;;;;4851254;29;20117;-76
2022/06/28 07:29:14;;;;;;;5.68;4.80;;;;;;;;;;4834725;29;20575;-78
2022/06/28 07:31:44;;;;;;;5.00;4.60;;;;;;;;;;4832348;29;20037;-76
2022/06/28 07:34:12;;;;;;;5.20;4.70;;;;;;;;;;4830126;29;20053;-76
2022/06/28 07:36:40;;;;;;;9.68;4.90;;;;;;;;;;4819223;29;20074;-77
2022/06/28 07:39:08;;;;;;;4.80;4.50;;;;;;;;;;4835413;29;20045;-77
2022/06/28 07:41:54;;;;;;;6.35;4.70;;;;;;;;;;4835347;29;20088;-77
2022/06/28 07:44:44;;;;;;;5.50;4.40;;;;;;;;;;4841640;29;20068;-78
2022/06/28 07:47:12;;;;;;;4.53;4.13;;;;;;;;;;4834612;29;20138;-76
2022/06/28 07:52:39;;;;;;;4.93;4.60;;;;;;;;;;4831395;29;20042;-76
2022/06/28 07:55:11;;;;;;;6.65;4.40;;;;;;;;;;4815779;29;20054;-77
2022/06/28 07:57:57;;;;;;;4.47;4.00;;;;;;;;;;4815360;29;20048;-76
2022/06/28 08:00:25;;;;;;;5.47;4.20;;;;;;;;;;4834159;29;20580;-76
2022/06/28 08:03:03;;;;;;;4.90;4.50;;;;;;;;;;4807077;29;20151;-74
2022/06/28 08:05:31;;;;;;;5.70;4.28;;;;;;;;;;4820975;29;20053;-75
2022/06/28 08:07:59;;;;;;;4.70;4.40;;;;;;;;;;4822019;29;20130;-76
2022/06/28 08:10:28;;;;;;;4.13;3.83;;;;;;;;;;4804489;29;20395;-77
2022/06/28 08:12:56;;;;;;;4.05;3.75;;;;;;;;;;4819750;29;20045;-77
2022/06/28 08:15:24;;;;;;;4.75;4.20;;;;;;;;;;4817928;29;20511;-76
2022/06/28 08:17:53;;;;;;;4.20;3.80;;;;;;;;;;4791622;29;20383;-77
2022/06/28 08:20:20;;;;;;;4.47;3.75;;;;;;;;;;4820093;29;20046;-75
2022/06/28 08:22:48;;;;;;;6.90;4.00;;;;;;;;;;4815558;29;20722;-77
2022/06/28 08:25:16;;;;;;;4.05;3.75;;;;;;;;;;4804016;29;20054;-76
2022/06/28 08:27:48;;;;;;;4.10;3.70;;;;;;;;;;4809501;29;20498;-76
2022/06/28 08:30:18;;;;;;;4.15;3.75;;;;;;;;;;4832171;29;20046;-79
2022/06/28 08:32:45;;;;;;;4.55;4.00;;;;;;;;;;4848465;29;20044;-78
2022/06/28 08:35:13;;;;;;;4.65;4.15;;;;;;;;;;4826091;29;20118;-75
2022/06/28 08:37:40;;;;;;;3.97;3.70;;;;;;;;;;4844798;29;20046;-75
2022/06/28 08:40:08;;;;;;;3.78;3.47;;;;;;;;;;4836040;29;20110;-75
2022/06/28 08:42:38;;;;;;;3.17;2.97;;;;;;;;;;4831084;29;20066;-75
2022/06/28 08:45:06;;;;;;;3.33;3.10;;;;;;;;;;4845665;29;20064;-76
2022/06/28 08:47:35;;;;;;;3.97;3.58;;;;;;;;;;4842378;29;20045;-76
2022/06/28 08:50:13;;;;;;;3.40;3.10;;;;;;;;;;4844396;29;20050;-76
2022/06/28 08:52:42;;;;;;;3.45;3.17;;;;;;;;;;4845919;29;20166;-76
2022/06/28 08:55:10;;;;;;;3.10;2.80;;;;;;;;;;4810858;29;20061;-77
2022/06/28 08:57:43;;;;;;;3.33;3.10;;;;;;;;;;4826059;29;20106;-77
2022/06/28 09:00:13;;;;;;;4.93;3.00;;;;;;;;;;4806607;29;20053;-76
2022/06/28 09:02:40;;;;;;;3.13;2.92;;;;;;;;;;4837623;29;20208;-77
2022/06/28 09:05:08;;;;;;;3.45;2.88;;;;;;;;;;4837639;29;20121;-77
2022/06/28 09:07:36;;;;;;;3.42;3.22;;;;;;;;;;4841036;29;20053;-76
2022/06/28 09:10:07;;;;;;;3.30;3.10;;;;;;;;;;4838674;29;20049;-77
2022/06/28 09:13:04;;;;;;;5.20;3.08;;;;;;;;;;4823826;29;20662;-77
2022/06/28 09:15:54;;;;;;;3.58;3.28;;;;;;;;;;4820677;29;20042;-77
2022/06/28 09:18:23;;;;;;;6.28;5.88;;;;;;;;;;4822504;29;20549;-75
2022/06/28 09:20:54;;;;;;;3.83;3.40;;;;;;;;;;4831819;29;20042;-76
2022/06/28 09:23:27;;;;;;;2.67;2.58;;;;;;;;;;4811288;29;20060;-76
2022/06/28 09:25:57;;;;;;;2.78;2.58;;;;;;;;;;4832767;29;20050;-76
2022/06/28 09:28:29;;;;;;;2.75;2.53;;;;;;;;;;4833158;29;20073;-76
2022/06/28 09:31:16;;;;;;;2.88;2.67;;;;;;;;;;4822971;29;20117;-76
2022/06/28 09:33:44;;;;;;;3.67;2.40;;;;;;;;;;4839063;29;20498;-75
2022/06/28 09:36:13;;;;;;;3.55;2.72;;;;;;;;;;4820217;29;20111;-75
2022/06/28 09:38:40;;;;;;;5.10;2.55;;;;;;;;;;4815514;29;20086;-77
2022/06/28 09:41:27;;;;;;;2.97;2.65;;;;;;;;;;4833135;29;20151;-75
2022/06/28 09:43:55;;;;;;;4.10;2.67;;;;;;;;;;4802061;29;20054;-75
2022/06/28 09:46:26;;;;;;;2.50;2.30;;;;;;;;;;4835213;29;20084;-76
2022/06/28 09:49:01;;;;;;;2.58;2.38;;;;;;;;;;4820108;29;20041;-76
2022/06/28 09:51:29;;;;;;;2.53;2.33;;;;;;;;;;4836439;29;20053;-76
2022/06/28 09:54:00;;;;;;;2.95;2.55;;;;;;;;;;4821272;29;20261;-77
2022/06/28 09:56:49;;;;;;;2.65;2.45;;;;;;;;;;4788328;29;20086;-77
2022/06/28 09:59:19;;;;;;;2.70;2.50;;;;;;;;;;4810214;29;20050;-76
2022/06/28 10:01:49;;;;;;;3.15;2.50;;;;;;;;;;4824331;29;20049;-76
2022/06/28 10:04:18;;;;;;;2.30;2.17;;;;;;;;;;4842569;29;20115;-76
2022/06/28 10:06:46;;;;;;;5.45;2.30;;;;;;;;;;4795767;29;20062;-77
2022/06/28 10:09:18;;;;;;;2.45;2.20;;;;;;;;;;4837667;29;20046;-76
2022/06/28 10:17:40;;;;;;;4.63;2.40;;;;;;;;;;4832469;29;20490;-76
2022/06/28 10:20:09;;;;;;;2.53;2.30;;;;;;;;;;4834101;29;20053;-76
2022/06/28 10:22:37;;;;;;;7.28;2.35;;;;;;;;;;4849558;29;20061;-77
2022/06/28 10:25:20;;;;;;;4.57;2.40;;;;;;;;;;4839964;29;20057;-79
2022/06/28 10:27:52;;;;;;;4.47;2.40;;;;;;;;;;4835699;29;20050;-77
2022/06/28 10:30:22;;;;;;;;;;;;;;;;;;4822081;29;20050;-75
2022/06/28 10:33:03;;;;;;;2.60;2.30;;;;;;;;;;4836504;29;20300;-77
2022/06/28 10:35:31;;;;;;;3.80;2.40;;;;;;;;;;4805433;29;20510;-75
2022/06/28 10:38:09;;;;;;;2.47;1.98;;;;;;;;;;4850781;29;20081;-77
2022/06/28 10:40:47;;;;;;;2.08;1.98;;;;;;;;;;4820935;29;20427;-75
2022/06/28 10:43:27;;;;;;;2.03;1.92;;;;;;;;;;4837901;29;20291;-76
2022/06/28 10:46:05;;;;;;;2.70;2.10;;;;;;;;;;4837418;29;20302;-75
2022/06/28 10:48:50;;;;;;;4.05;2.00;;;;;;;;;;4842452;29;20495;-77
2022/06/28 10:51:21;;;;;;;1.85;1.70;;;;;;;;;;4820663;29;20054;-76
2022/06/28 10:54:11;;;;;;;3.20;2.00;;;;;;;;;;4817729;29;20499;-77
2022/06/28 10:56:41;;;;;;;1.73;1.60;;;;;;;;;;4834181;29;20042;-76
2022/06/28 10:59:14;;;;;;;3.40;2.10;;;;;;;;;;4823327;29;20102;-77
2022/06/28 11:01:42;;;;;;;2.05;1.85;;;;;;;;;;4850777;29;20049;-76
2022/06/28 11:04:19;;;;;;;1.80;1.70;;;;;;;;;;4818865;29;20064;-76
2022/06/28 11:06:48;;;;;;;1.90;1.80;;;;;;;;;;4820348;29;20057;-77
2022/06/28 11:09:24;;;;;;;4.50;2.08;;;;;;;;;;4821211;29;20054;-76
2022/06/28 11:12:07;;;;;;;5.15;2.10;;;;;;;;;;4837816;29;20176;-77
2022/06/28 11:14:52;;;;;;;2.00;1.90;;;;;;;;;;4837232;29;20065;-77
2022/06/28 11:17:20;;;;;;;7.97;2.25;;;;;;;;;;4805210;29;20494;-77
2022/06/28 11:19:51;;;;;;;2.63;1.80;;;;;;;;;;4839681;29;20711;-77
2022/06/28 11:22:19;;;;;;;;;;;;;;;;;;4837979;29;20106;-77
2022/06/28 11:24:47;;;;;;;2.17;1.90;;;;;;;;;;4846608;29;19963;-78
2022/06/28 11:27:24;;;;;;;2.08;1.80;;;;;;;;;;4848517;29;20054;-77
2022/06/28 11:30:00;;;;;;;4.72;1.92;;;;;;;;;;4831706;29;20058;-76
2022/06/28 11:32:33;;;;;;;1.85;1.52;;;;;;;;;;4839596;29;20435;-77
2022/06/28 11:35:06;;;;;;;2.67;1.58;;;;;;;;;;4820469;29;20261;-77
2022/06/28 11:37:34;;;;;;;2.17;1.75;;;;;;;;;;4834360;29;20077;-77
2022/06/28 11:40:03;;;;;;;2.00;1.80;;;;;;;;;;4835161;29;20157;-76
2022/06/28 11:42:30;;;;;;;1.73;1.63;;;;;;;;;;4803665;29;20064;-77
2022/06/28 11:44:58;;;;;;;1.98;1.60;;;;;;;;;;4817528;29;20507;-75
2022/06/28 11:47:26;;;;;;;2.05;1.40;;;;;;;;;;4823644;29;20058;-77
2022/06/28 11:50:09;;;;;;;1.70;1.60;;;;;;;;;;4810825;29;20387;-76
2022/06/28 11:52:46;;;;;;;1.75;1.50;;;;;;;;;;4835718;29;20547;-76
2022/06/28 11:55:16;;;;;;;2.60;1.42;;;;;;;;;;4836920;29;20042;-77
2022/06/28 11:57:44;;;;;;;1.45;1.35;;;;;;;;;;4836005;29;20562;-77
2022/06/28 12:00:14;;;;;;;2.40;1.60;;;;;;;;;;4824093;29;20135;-77
2022/06/28 12:02:55;;;;;;;5.13;1.67;;;;;;;;;;4852877;29;20443;-77
2022/06/28 12:05:33;;;;;;;1.60;1.42;;;;;;;;;;4838106;29;20064;-78
2022/06/28 12:08:01;;;;;;;2.08;1.80;;;;;;;;;;4834297;29;20774;-78
2022/06/28 12:10:30;;;;;;;5.80;1.70;;;;;;;;;;4835478;29;20595;-77
2022/06/28 12:12:59;;;;;;;3.85;1.70;;;;;;;;;;4835729;29;20053;-76
2022/06/28 12:15:34;;;;;;;2.58;1.42;;;;;;;;;;4834664;29;20050;-77
2022/06/28 12:18:08;;;;;;;1.67;1.60;;;;;;;;;;4819666;29;20106;-77
2022/06/28 12:20:35;;;;;;;2.15;1.67;;;;;;;;;;4835169;29;20138;-77
2022/06/28 12:23:07;;;;;;;1.50;1.40;;;;;;;;;;4822732;29;20054;-77
2022/06/28 12:25:35;;;;;;;2.70;1.83;;;;;;;;;;4828390;29;20698;-77
2022/06/28 12:28:03;;;;;;;1.60;1.50;;;;;;;;;;4827331;29;20069;-76
2022/06/28 12:30:31;;;;;;;3.03;1.52;;;;;;;;;;4831334;29;20054;-77
2022/06/28 12:32:59;;;;;;;3.90;1.45;;;;;;;;;;4834585;29;20080;-76
2022/06/28 12:35:28;;;;;;;3.83;1.50;;;;;;;;;;4836048;29;20049;-77
2022/06/28 12:37:55;;;;;;;4.95;1.63;;;;;;;;;;4818886;29;20058;-76
2022/06/28 12:40:24;;;;;;;2.88;1.95;;;;;;;;;;4831104;29;20065;-77
2022/06/28 12:42:52;;;;;;;5.18;1.67;;;;;;;;;;4820102;29;20085;-76
2022/06/28 12:45:19;;;;;;;4.00;1.58;;;;;;;;;;4822546;29;20447;-77
2022/06/28 12:47:47;;;;;;;3.33;1.60;;;;;;;;;;4831339;29;20088;-77
2022/06/28 12:50:18;;;;;;;1.83;1.50;;;;;;;;;;4822386;29;20048;-77
2022/06/28 12:52:45;;;;;;;3.97;1.55;;;;;;;;;;4815886;29;20073;-77
2022/06/28 12:55:13;;;;;;;3.83;1.85;;;;;;;;;;4836120;29;20499;-77
2022/06/28 12:57:41;;;;;;;4.03;1.70;;;;;;;;;;4821708;29;20142;-77
2022/06/28 13:00:10;;;;;;;6.03;1.80;;;;;;;;;;4838597;29;20072;-76
2022/06/28 13:02:38;;;;;;;1.60;1.50;;;;;;;;;;4829241;29;20062;-76
2022/06/28 13:05:06;;;;;;;3.10;1.80;;;;;;;;;;4824036;29;20102;-76
2022/06/28 13:07:34;;;;;;;2.47;1.90;;;;;;;;;;4815377;29;20041;-76
2022/06/28 13:10:01;;;;;;;2.97;1.77;;;;;;;;;;4831489;29;20077;-77
2022/06/28 13:12:31;;;;;;;4.60;1.60;;;;;;;;;;4820235;29;20062;-77
2022/06/28 13:14:59;;;;;;;3.40;1.60;;;;;;;;;;4836536;29;20054;-77
2022/06/28 13:17:29;;;;;;;1.70;1.60;;;;;;;;;;4833384;29;20380;-76
2022/06/28 13:19:57;;;;;;;2.20;1.60;;;;;;;;;;4825943;29;20046;-77
2022/06/28 13:22:45;;;;;;;1.65;1.55;;;;;;;;;;4822783;29;20137;-77
2022/06/28 13:25:13;;;;;;;1.60;1.50;;;;;;;;;;4831189;29;20150;-77
2022/06/28 13:27:40;;;;;;;4.85;1.60;;;;;;;;;;4829007;29;20046;-77
2022/06/28 13:30:08;;;;;;;1.70;1.60;;;;;;;;;;4812789;29;20072;-77
2022/06/28 13:32:35;;;;;;;4.00;1.80;;;;;;;;;;4828907;29;20054;-76
2022/06/28 13:35:05;;;;;;;1.80;1.70;;;;;;;;;;4820372;29;20054;-77
2022/06/28 13:37:33;;;;;;;4.18;1.52;;;;;;;;;;4832794;29;20049;-77
2022/06/28 13:40:08;;;;;;;3.60;1.60;;;;;;;;;;4833511;29;20511;-76
2022/06/28 13:42:36;;;;;;;4.93;1.60;;;;;;;;;;4819480;29;20049;-76
2022/06/28 13:45:07;;;;;;;3.92;1.70;;;;;;;;;;4833772;29;20063;-78
2022/06/28 13:47:35;;;;;;;4.15;1.65;;;;;;;;;;4819152;29;20038;-76
2022/06/28 13:50:03;;;;;;;1.73;1.50;;;;;;;;;;4858351;29;20058;-77
2022/06/28 13:52:30;;;;;;;2.38;1.42;;;;;;;;;;4853675;29;20041;-77
2022/06/28 13:55:05;;;;;;;2.88;1.35;;;;;;;;;;4808632;29;20089;-76
2022/06/28 13:57:32;;;;;;;2.15;1.60;;;;;;;;;;4837479;24;20049;-77
2022/06/28 14:00:00;;;;;;;1.60;1.50;;;;;;;;;;4828678;29;20161;-77
2022/06/28 14:02:33;;;;;;;2.83;1.80;;;;;;;;;;4839072;29;20050;-76
2022/06/28 14:05:00;;;;;;;3.80;1.80;;;;;;;;;;4839541;29;20137;-77
2022/06/28 14:07:28;;;;;;;2.47;1.83;;;;;;;;;;4820611;29;20074;-77
2022/06/28 14:09:55;;;;;;;2.17;1.92;;;;;;;;;;4821558;29;20507;-76
2022/06/28 14:12:23;;;;;;;2.38;1.77;;;;;;;;;;4837310;29;20137;-75
2022/06/28 14:14:50;;;;;;;2.97;1.95;;;;;;;;;;4819981;29;20096;-77
2022/06/28 14:17:17;;;;;;;2.28;1.90;;;;;;;;;;4837697;29;20754;-77
2022/06/28 14:19:45;;;;;;;2.25;1.80;;;;;;;;;;4838466;29;20057;-77
2022/06/28 14:22:12;;;;;;;2.08;1.88;;;;;;;;;;4820691;29;20074;-75
2022/06/28 14:24:40;;;;;;;3.00;2.17;;;;;;;;;;4818726;29;20042;-77
2022/06/28 14:27:08;;;;;;;2.03;1.90;;;;;;;;;;4832902;29;20157;-76
2022/06/28 14:29:36;;;;;;;7.13;2.08;;;;;;;;;;4820673;29;20046;-77
2022/06/28 14:32:04;;;;;;;4.13;2.22;;;;;;;;;;4838260;29;20496;-77
2022/06/28 14:34:31;;;;;;;2.67;2.00;;;;;;;;;;4820529;29;20050;-77
2022/06/28 14:36:59;;;;;;;5.55;2.20;;;;;;;;;;4821683;29;20732;-77
2022/06/28 14:39:26;;;;;;;3.00;2.00;;;;;;;;;;4821894;29;20121;-77
2022/06/28 14:41:54;;;;;;;3.60;2.00;;;;;;;;;;4822127;29;20054;-77
2022/06/28 14:44:22;;;;;;;2.00;1.80;;;;;;;;;;4821192;29;20054;-75
2022/06/28 14:46:49;;;;;;;1.98;1.88;;;;;;;;;;4836237;29;20492;-76
2022/06/28 14:49:17;;;;;;;2.92;1.83;;;;;;;;;;4838414;29;20061;-77
2022/06/28 14:51:45;;;;;;;2.90;1.83;;;;;;;;;;4821783;29;20141;-76
2022/06/28 14:54:12;;;;;;;1.73;1.63;;;;;;;;;;4837228;29;20106;-75
2022/06/28 14:56:40;;;;;;;1.90;1.80;;;;;;;;;;4840209;29;20083;-75
2022/06/28 14:59:07;;;;;;;2.38;2.13;;;;;;;;;;4838983;29;20075;-77
2022/06/28 15:01:35;;;;;;;2.20;2.00;;;;;;;;;;4847484;29;20057;-76
2022/06/28 15:04:03;;;;;;;2.30;1.98;;;;;;;;;;4846142;29;20057;-75
2022/06/28 15:06:30;;;;;;;3.47;2.20;;;;;;;;;;4829565;29;20065;-75
2022/06/28 15:08:58;;;;;;;1.95;1.85;;;;;;;;;;4819875;29;20049;-77
2022/06/28 15:11:26;;;;;;;2.15;1.95;;;;;;;;;;4845112;29;20067;-77
2022/06/28 15:13:54;;;;;;;4.72;2.10;;;;;;;;;;4823428;29;20075;-77
2022/06/28 15:16:21;;;;;;;3.05;2.10;;;;;;;;;;4838580;29;20069;-75
2022/06/28 15:18:50;;;;;;;4.57;2.00;;;;;;;;;;4834899;29;20058;-76
2022/06/28 15:32:48;;;;;;;2.72;1.90;;;;;;;;;;4849970;29;20958;-76